createdAt,value
2018-11-03T10:22:10.119Z,29.83
2018-11-03T10:24:40.078Z,36.67
2018-11-03T10:29:38.393Z,33.93
2018-11-03T10:32:07.684Z,33.53
2018-11-03T10:34:37.239Z,33.70
2018-11-03T10:37:06.616Z,30.90
2018-11-03T10:39:35.937Z,31.10
2018-11-03T10:42:05.478Z,30.50
2018-11-03T10:44:34.784Z,33.57
2018-11-03T10:47:04.267Z,32.80
2018-11-03T10:49:33.612Z,31.33
2018-11-03T10:52:03.497Z,31.37
2018-11-03T10:54:32.825Z,31.50
2018-11-03T10:57:02.214Z,32.13
2018-11-03T10:59:31.525Z,30.20
2018-11-03T11:02:06.660Z,32.20
2018-11-03T11:04:41.285Z,31.40
2018-11-03T11:07:17.935Z,33.43
2018-11-03T11:09:52.576Z,33.40
2018-11-03T11:12:26.793Z,32.40
2018-11-03T11:14:55.835Z,34.50
2018-11-03T11:17:25.691Z,32.05
2018-11-03T11:19:54.814Z,29.70
2018-11-03T11:22:24.096Z,33.80
2018-11-03T11:24:53.804Z,32.47
2018-11-03T11:27:23.148Z,32.97
2018-11-03T11:29:52.642Z,29.77
2018-11-03T11:32:21.861Z,32.70
2018-11-03T11:34:51.497Z,34.57
2018-11-03T11:37:21.650Z,32.20
2018-11-03T11:39:51.039Z,33.30
2018-11-03T11:42:20.302Z,45.23
2018-11-03T11:44:49.810Z,35.33
2018-11-03T11:47:18.921Z,31.67
2018-11-03T11:49:48.184Z,45.53
2018-11-03T11:52:17.723Z,35.10
2018-11-03T11:54:47.140Z,34.10
2018-11-03T11:57:16.955Z,30.10
2018-11-03T12:02:16.434Z,31.47
2018-11-03T12:04:46.189Z,31.53
2018-11-03T12:07:15.988Z,35.93
2018-11-03T12:09:45.195Z,31.20
2018-11-03T12:14:43.104Z,29.20
2018-11-03T12:17:12.527Z,36.57
2018-11-03T12:19:41.769Z,31.15
2018-11-03T12:22:11.253Z,34.10
2018-11-03T12:24:40.950Z,38.83
2018-11-03T12:27:10.074Z,35.20
2018-11-03T12:29:39.296Z,38.43
2018-11-03T12:32:08.751Z,29.07
2018-11-03T12:34:38.234Z,29.40
2018-11-03T12:37:07.547Z,29.23
2018-11-03T12:39:37.243Z,26.50
2018-11-03T12:42:06.765Z,24.17
2018-11-03T12:44:36.355Z,31.00
2018-11-03T12:47:05.578Z,30.80
2018-11-03T12:49:35.005Z,28.23
2018-11-03T12:52:04.942Z,30.10
2018-11-03T12:54:34.530Z,28.60
2018-11-03T12:57:04.158Z,28.20
2018-11-03T12:59:33.317Z,27.37
2018-11-03T13:02:03.233Z,27.53
2018-11-03T13:04:32.624Z,26.20
2018-11-03T13:07:03.530Z,26.87
2018-11-03T13:09:34.902Z,27.50
2018-11-03T13:12:05.389Z,38.83
2018-11-03T13:14:35.145Z,33.23
2018-11-03T13:17:04.386Z,30.27
2018-11-03T13:19:34.097Z,30.83
2018-11-03T13:22:05.670Z,25.33
2018-11-03T13:24:34.971Z,23.57
2018-11-03T13:27:05.709Z,25.00
2018-11-03T13:29:35.312Z,26.57
2018-11-03T13:32:04.962Z,30.03
2018-11-03T13:34:35.032Z,26.90
2018-11-03T13:37:04.738Z,29.23
2018-11-03T13:39:34.676Z,27.30
2018-11-03T13:42:04.322Z,28.35
2018-11-03T13:44:33.445Z,30.97
2018-11-03T13:47:03.152Z,29.90
2018-11-03T13:49:32.705Z,32.57
2018-11-03T13:52:02.115Z,29.50
2018-11-03T13:54:31.669Z,32.90
2018-11-03T13:57:01.333Z,31.20
2018-11-03T13:59:30.349Z,32.50
2018-11-03T14:02:00.188Z,30.67
2018-11-03T14:04:29.521Z,34.17
2018-11-03T14:06:59.263Z,32.73
2018-11-03T14:09:28.633Z,31.67
2018-11-03T14:11:57.868Z,34.17
2018-11-03T14:14:27.748Z,33.50
2018-11-03T14:16:57.043Z,33.57
2018-11-03T14:19:26.672Z,34.30
2018-11-03T14:21:56.300Z,33.50
2018-11-03T14:24:26.259Z,32.37
2018-11-03T14:26:55.677Z,32.10
2018-11-03T14:29:25.049Z,36.63
2018-11-03T14:31:54.834Z,33.47
2018-11-03T14:34:24.146Z,33.67
2018-11-03T14:36:54.319Z,34.80
2018-11-03T14:39:23.590Z,34.63
2018-11-03T14:41:52.857Z,34.20
2018-11-03T14:44:22.515Z,34.07
2018-11-03T14:46:51.782Z,32.47
2018-11-03T14:49:20.871Z,34.70
2018-11-03T14:51:50.410Z,32.90
2018-11-03T14:54:19.761Z,33.60
2018-11-03T14:56:49.568Z,35.20
2018-11-03T14:59:19.069Z,33.97
2018-11-03T15:01:48.832Z,33.40
2018-11-03T15:04:18.269Z,35.23
2018-11-03T15:06:47.570Z,33.83
2018-11-03T15:09:17.458Z,33.73
2018-11-03T15:11:48.095Z,33.27
2018-11-03T15:14:17.345Z,34.50
2018-11-03T15:16:46.864Z,34.30
2018-11-03T15:19:16.065Z,32.43
2018-11-03T15:21:45.201Z,36.40
2018-11-03T15:24:14.733Z,35.57
2018-11-03T15:26:44.018Z,34.70
2018-11-03T15:29:13.493Z,35.47
2018-11-03T15:31:43.257Z,34.13
2018-11-03T15:34:13.372Z,37.83
2018-11-03T15:36:43.738Z,35.30
2018-11-03T15:39:13.147Z,37.43
2018-11-03T15:41:42.372Z,38.00
2018-11-03T15:44:12.218Z,39.50
2018-11-03T15:46:41.910Z,39.70
2018-11-03T15:49:11.630Z,38.93
2018-11-03T15:51:41.592Z,39.53
2018-11-03T15:54:11.219Z,41.53
2018-11-03T15:56:41.055Z,42.00
2018-11-03T15:59:10.622Z,44.83
2018-11-03T16:01:40.116Z,43.47
2018-11-03T16:04:09.656Z,43.63
2018-11-03T16:06:39.360Z,41.87
2018-11-03T16:09:11.245Z,39.47
2018-11-03T16:11:40.202Z,40.80
2018-11-03T16:14:10.078Z,42.13
2018-11-03T16:16:40.306Z,41.60
2018-11-03T16:19:09.531Z,45.40
2018-11-03T16:21:39.029Z,42.50
2018-11-03T16:24:08.146Z,49.57
2018-11-03T16:26:37.480Z,48.93
2018-11-03T16:29:06.630Z,44.17
2018-11-03T16:31:35.537Z,45.77
2018-11-03T16:34:05.850Z,45.70
2018-11-03T16:36:34.492Z,44.33
2018-11-03T16:39:03.320Z,44.40
2018-11-03T16:41:32.046Z,47.60
2018-11-03T16:44:00.831Z,47.83
2018-11-03T16:46:31.054Z,44.23
2018-11-03T16:48:59.797Z,50.23
2018-11-03T16:51:28.600Z,48.70
2018-11-03T16:53:57.364Z,50.37
2018-11-03T16:56:26.475Z,46.20
2018-11-03T16:58:55.184Z,46.27
2018-11-03T17:01:24.386Z,46.50
2018-11-03T17:03:53.096Z,49.10
2018-11-03T17:06:21.865Z,49.53
2018-11-03T17:08:50.447Z,48.67
2018-11-03T17:11:20.675Z,47.40
2018-11-03T17:13:49.443Z,52.80
2018-11-03T17:16:18.173Z,51.40
2018-11-03T17:18:47.169Z,49.87
2018-11-03T17:21:15.731Z,48.77
2018-11-03T17:23:44.605Z,45.67
2018-11-03T17:26:13.253Z,48.00
2018-11-03T17:28:42.031Z,47.63
2018-11-03T17:31:11.141Z,45.03
2018-11-03T17:33:40.277Z,46.07
2018-11-03T17:36:09.098Z,46.03
2018-11-03T17:38:37.730Z,45.00
2018-11-03T17:41:09.719Z,47.50
2018-11-03T17:43:41.412Z,47.00
2018-11-03T17:46:10.079Z,47.63
2018-11-03T17:48:38.826Z,46.67
2018-11-03T17:51:08.278Z,47.63
2018-11-03T17:53:37.042Z,44.90
2018-11-03T17:56:05.822Z,46.17
2018-11-03T17:58:34.533Z,46.60
2018-11-03T18:01:03.411Z,48.20
2018-11-03T18:03:32.202Z,47.80
2018-11-03T18:06:01.868Z,45.87
2018-11-03T18:08:31.030Z,48.33
2018-11-03T18:11:00.189Z,46.67
2018-11-03T18:13:29.015Z,47.27
2018-11-03T18:15:57.772Z,48.60
2018-11-03T18:18:26.393Z,43.17
2018-11-03T18:20:55.066Z,43.33
2018-11-03T18:23:24.409Z,47.00
2018-11-03T18:25:53.274Z,44.77
2018-11-03T18:28:21.995Z,46.17
2018-11-03T18:30:50.867Z,46.40
2018-11-03T18:33:20.062Z,48.57
2018-11-03T18:35:49.332Z,46.93
2018-11-03T18:38:19.435Z,45.90
2018-11-03T18:40:50.289Z,47.17
2018-11-03T18:43:19.380Z,47.43
2018-11-03T18:45:47.969Z,46.87
2018-11-03T18:48:16.760Z,48.57
2018-11-03T18:50:45.550Z,47.30
2018-11-03T18:53:14.512Z,47.23
2018-11-03T18:55:43.749Z,47.10
2018-11-03T19:10:33.762Z,48.00
2018-11-03T19:13:02.583Z,47.53
2018-11-03T19:15:31.467Z,49.60
2018-11-03T19:18:00.024Z,48.10
2018-11-03T19:30:22.040Z,48.55
2018-11-03T19:32:50.864Z,48.53
2018-11-03T19:37:49.691Z,49.53
2018-11-03T19:40:18.527Z,55.15
2018-11-03T19:45:16.148Z,51.90
2018-11-03T19:47:44.701Z,49.57
2018-11-03T19:50:13.407Z,50.20
2018-11-03T19:52:42.113Z,50.87
2018-11-03T19:55:11.128Z,51.47
2018-11-03T19:57:40.512Z,52.63
2018-11-03T20:00:11.773Z,52.97
2018-11-03T20:02:41.135Z,52.70
2018-11-03T20:05:10.774Z,49.07
2018-11-03T20:07:40.135Z,47.20
2018-11-03T20:10:09.540Z,44.37
2018-11-03T20:29:55.806Z,47.60
2018-11-03T20:32:24.798Z,45.60
2018-11-03T22:13:38.857Z,36.03
2018-11-03T22:16:07.898Z,33.60
2018-11-03T22:18:37.088Z,31.50
2018-11-03T22:21:06.138Z,29.60
2018-11-03T22:26:03.239Z,25.20
2018-11-03T22:28:32.040Z,22.57
